Time;durP1;ratioP1;P1;durP2;ratioP2;P2;SDS_P1;SDS_P2;PMS_P1;PMS_P2;Temp;Humidity;BMP_temperature;BMP_pressure;BME280_temperature;BME280_humidity;BME280_pressure;Samples;Min_cycle;Max_cycle;Signal;HPM_P1;HPM_P2
2024/01/29 00:00:16;;;;;;;122.60;44.38;;;;;;;;;;5070634;28;20025;-51
2024/01/29 00:02:42;;;;;;;315.15;105.32;;;;;;;;;;5019468;28;20415;-51
2024/01/29 00:05:09;;;;;;;35.03;17.80;;;;;;;;;;5070568;28;20025;-53
2024/01/29 00:07:35;;;;;;;23.92;13.52;;;;;;;;;;5069618;28;20074;-51
2024/01/29 00:10:01;;;;;;;21.13;12.52;;;;;;;;;;5070564;28;20028;-51
2024/01/29 00:12:27;;;;;;;22.75;12.80;;;;;;;;;;5070625;28;20089;-53
2024/01/29 00:14:53;;;;;;;21.13;12.48;;;;;;;;;;5068821;28;20064;-52
2024/01/29 00:17:19;;;;;;;24.40;14.20;;;;;;;;;;5008251;28;20123;-53
2024/01/29 00:19:45;;;;;;;17.05;11.77;;;;;;;;;;5058805;28;20025;-51
2024/01/29 00:22:11;;;;;;;20.17;12.05;;;;;;;;;;5052355;28;20029;-53
2024/01/29 00:24:38;;;;;;;22.75;11.75;;;;;;;;;;5070366;28;20025;-52
2024/01/29 00:27:04;;;;;;;21.52;11.70;;;;;;;;;;5070946;28;20025;-52
2024/01/29 00:29:30;;;;;;;18.13;11.60;;;;;;;;;;5070507;28;20487;-51
2024/01/29 00:31:56;;;;;;;19.33;12.15;;;;;;;;;;5070138;28;20039;-53
2024/01/29 00:34:22;;;;;;;21.13;11.77;;;;;;;;;;5070094;28;20024;-54
2024/01/29 00:36:48;;;;;;;83.97;34.45;;;;;;;;;;5070516;28;20041;-53
2024/01/29 00:39:14;;;;;;;49.00;24.67;;;;;;;;;;5070428;28;20032;-51
2024/01/29 00:41:40;;;;;;;38.80;19.88;;;;;;;;;;5036345;28;20097;-51
2024/01/29 00:44:07;;;;;;;35.33;20.63;;;;;;;;;;5074407;28;20434;-51
2024/01/29 00:46:33;;;;;;;38.45;21.30;;;;;;;;;;5073929;28;20024;-51
2024/01/29 00:48:59;;;;;;;70.35;30.13;;;;;;;;;;5038121;28;20087;-51
2024/01/29 00:51:25;;;;;;;58.45;26.98;;;;;;;;;;5074016;28;20024;-53
2024/01/29 00:53:51;;;;;;;83.90;34.47;;;;;;;;;;5038451;28;20744;-53
2024/01/29 00:56:17;;;;;;;73.65;30.90;;;;;;;;;;5073593;28;20029;-53
2024/01/29 00:58:44;;;;;;;61.85;25.55;;;;;;;;;;5073696;28;20099;-53
2024/01/29 01:01:11;;;;;;;63.05;28.77;;;;;;;;;;5038375;28;20051;-53
2024/01/29 01:03:37;;;;;;;54.15;25.00;;;;;;;;;;5056305;28;20029;-54
2024/01/29 01:06:03;;;;;;;87.18;33.97;;;;;;;;;;5018081;28;20045;-54
2024/01/29 01:08:29;;;;;;;55.08;24.23;;;;;;;;;;5053605;28;20029;-54
2024/01/29 01:10:55;;;;;;;48.40;21.75;;;;;;;;;;5053465;28;20029;-53
2024/01/29 01:13:21;;;;;;;43.80;19.88;;;;;;;;;;5034319;28;20396;-53
2024/01/29 01:15:48;;;;;;;25.90;14.32;;;;;;;;;;5053262;28;20037;-50
2024/01/29 01:18:14;;;;;;;21.20;12.40;;;;;;;;;;5053356;28;20029;-52
2024/01/29 01:20:40;;;;;;;19.50;11.63;;;;;;;;;;5053208;28;20060;-53
2024/01/29 01:23:06;;;;;;;20.08;11.18;;;;;;;;;;5053442;28;20032;-51
2024/01/29 01:25:32;;;;;;;22.67;11.63;;;;;;;;;;5053108;28;20029;-52
2024/01/29 01:27:58;;;;;;;15.60;10.75;;;;;;;;;;5053333;28;20032;-54
2024/01/29 01:30:25;;;;;;;19.27;11.18;;;5.90;99.90;;;;;;5053000;28;20059;-52
2024/01/29 01:32:50;;;;;;;19.67;11.35;;;5.80;99.90;;;;;;5053317;28;20059;-53
2024/01/29 01:35:16;;;;;;;19.15;9.63;;;5.40;99.90;;;;;;5034174;28;20545;-51
2024/01/29 01:37:42;;;;;;;17.02;9.95;;;5.40;99.90;;;;;;5053025;28;20045;-51
2024/01/29 01:40:08;;;;;;;17.25;9.88;;;;;;;;;;5052866;28;20457;-54
2024/01/29 01:42:35;;;;;;;19.08;10.05;;;;;;;;;;5052636;28;20051;-53
2024/01/29 01:45:01;;;;;;;15.98;10.13;;;;;;;;;;5052969;28;20032;-52
2024/01/29 01:47:27;;;;;;;18.63;10.27;;;;;;;;;;5033550;28;20098;-54
2024/01/29 01:49:53;;;;;;;23.08;9.90;;;5.70;99.90;;;;;;5052967;28;20025;-54
2024/01/29 01:52:20;;;;;;;16.73;10.55;;;;;;;;;;5052322;28;20477;-51
2024/01/29 01:54:47;;;;;;;17.98;10.77;;;5.70;99.90;;;;;;5052477;28;20075;-52
2024/01/29 01:57:13;;;;;;;17.23;10.13;;;5.60;99.90;;;;;;5017087;28;20041;-53
2024/01/29 01:59:39;;;;;;;19.92;10.23;;;5.50;99.90;;;;;;5000863;28;20085;-54
2024/01/29 02:02:07;;;;;;;17.25;10.77;;;5.50;99.90;;;;;;5053024;28;20373;-53
2024/01/29 02:04:32;;;;;;;14.40;10.25;;;5.50;99.90;;;;;;5052255;28;20037;-52
2024/01/29 02:06:59;;;;;;;21.33;13.70;;;5.40;99.90;;;;;;5052666;28;20028;-51
2024/01/29 02:09:26;;;;;;;25.98;15.38;;;4.70;99.90;;;;;;5037075;28;20388;-54
2024/01/29 02:11:51;;;;;;;28.23;16.75;;;4.30;99.90;;;;;;5072422;28;20034;-55
2024/01/29 02:14:17;;;;;;;30.02;16.25;;;4.00;99.90;;;;;;5019874;28;20112;-51
2024/01/29 02:16:43;;;;;;;26.80;18.23;;;4.20;99.90;;;;;;5049281;28;20122;-54
2024/01/29 02:19:18;;;;;;;33.30;19.45;;;4.30;99.90;;;;;;5049737;28;20044;-51
2024/01/29 02:21:44;;;;;;;26.08;17.15;;;4.50;99.90;;;;;;5049538;28;20037;-51
2024/01/29 02:24:10;;;;;;;29.23;19.02;;;4.50;99.90;;;;;;5049588;28;20039;-54
2024/01/29 02:26:36;;;;;;;28.98;18.58;;;4.50;99.90;;;;;;5049340;28;20203;-52
2024/01/29 02:29:02;;;;;;;35.35;21.38;;;4.60;99.90;;;;;;5032991;28;20033;-53
2024/01/29 02:31:28;;;;;;;34.65;24.35;;;4.70;99.90;;;;;;5049455;28;20040;-52
2024/01/29 02:33:53;;;;;;;24.60;17.77;;;4.80;99.90;;;;;;5049272;28;20443;-51
2024/01/29 02:36:19;;;;;;;18.83;12.95;;;4.90;99.90;;;;;;5049245;28;20044;-53
2024/01/29 02:38:45;;;;;;;24.73;12.95;;;5.10;99.90;;;;;;5049203;28;20033;-52
2024/01/29 02:41:11;;;;;;;17.23;10.93;;;5.20;99.90;;;;;;5032565;28;20120;-50
2024/01/29 02:43:36;;;;;;;17.75;11.48;;;5.20;99.90;;;;;;5049110;28;20071;-51
2024/01/29 02:46:02;;;;;;;18.25;10.95;;;5.30;99.90;;;;;;5015822;28;20104;-52
2024/01/29 02:48:28;;;;;;;17.20;11.85;;;5.30;99.90;;;;;;5067102;28;20048;-53
2024/01/29 02:50:54;;;;;;;16.65;10.50;;;5.30;99.90;;;;;;5071541;28;20031;-54
2024/01/29 02:53:20;;;;;;;17.30;10.57;;;5.40;99.90;;;;;;5071495;28;20032;-51
2024/01/29 02:55:46;;;;;;;19.17;12.30;;;;;;;;;;5071186;28;20086;-52
2024/01/29 02:58:12;;;;;;;24.15;14.38;;;;;;;;;;5071541;28;20086;-50
2024/01/29 03:00:38;;;;;;;25.80;14.95;;;;;;;;;;5071831;28;20099;-54
2024/01/29 03:03:04;;;;;;;23.92;14.98;;;5.30;99.90;;;;;;5071502;28;20020;-51
2024/01/29 03:05:30;;;;;;;26.60;16.20;;;5.00;99.90;;;;;;5052172;28;20040;-54
2024/01/29 03:07:55;;;;;;;26.83;17.45;;;4.80;99.90;;;;;;5071659;28;20363;-53
2024/01/29 03:10:21;;;;;;;33.65;21.05;;;4.50;99.90;;;;;;5071542;28;20032;-51
2024/01/29 03:12:47;;;;;;;40.60;24.70;;;4.60;99.90;;;;;;5052122;28;20033;-53
2024/01/29 03:15:13;;;;;;;44.45;25.95;;;4.50;99.90;;;;;;5071171;28;20021;-51
2024/01/29 03:17:38;;;;;;;50.90;27.65;;;4.50;99.90;;;;;;5071015;28;20036;-52
2024/01/29 03:20:05;;;;;;;57.85;29.52;;;4.50;99.90;;;;;;5071245;28;20029;-51
2024/01/29 03:22:31;;;;;;;59.95;32.67;;;4.40;99.90;;;;;;5070966;28;20506;-51
2024/01/29 03:24:56;;;;;;;47.90;28.88;;;4.50;99.90;;;;;;5071029;28;20036;-54
2024/01/29 03:27:22;;;;;;;54.35;32.70;;;4.50;99.90;;;;;;5071232;28;20017;-53
2024/01/29 03:29:48;;;;;;;54.10;32.17;;;4.50;99.90;;;;;;5070766;28;20024;-51
2024/01/29 03:32:14;;;;;;;50.08;32.00;;;4.50;99.90;;;;;;5053271;28;20037;-51
2024/01/29 03:34:42;;;;;;;51.67;33.42;;;4.50;99.90;;;;;;4999318;28;20036;-53
2024/01/29 03:37:08;;;;;;;59.53;36.75;;;4.50;99.90;;;;;;5050673;28;20083;-51
2024/01/29 03:39:34;;;;;;;57.63;37.72;;;4.40;99.90;;;;;;5050795;28;20025;-50
2024/01/29 03:42:00;;;;;;;54.60;33.15;;;4.30;99.90;;;;;;5051257;28;20033;-52
2024/01/29 03:44:25;;;;;;;50.72;30.50;;;4.30;99.90;;;;;;5050710;28;20100;-50
2024/01/29 03:46:51;;;;;;;46.30;30.70;;;4.30;99.90;;;;;;5015153;28;20124;-53
2024/01/29 03:49:17;;;;;;;45.15;29.10;;;4.40;99.90;;;;;;5050592;28;20155;-51
2024/01/29 03:51:43;;;;;;;45.17;29.60;;;4.40;99.90;;;;;;4998848;28;20041;-52
2024/01/29 03:54:08;;;;;;;54.70;30.48;;;4.30;99.90;;;;;;5050521;28;20036;-53
2024/01/29 03:56:34;;;;;;;51.92;32.15;;;4.30;99.90;;;;;;5050270;28;20032;-53
2024/01/29 03:59:00;;;;;;;52.97;33.05;;;4.30;99.90;;;;;;5054894;28;20116;-53
2024/01/29 04:01:27;;;;;;;72.22;36.63;;;4.20;99.90;;;;;;5056172;28;20036;-53
2024/01/29 04:03:53;;;;;;;68.45;38.10;;;4.30;99.90;;;;;;5064864;28;20032;-50
2024/01/29 04:06:19;;;;;;;75.88;45.00;;;4.20;99.90;;;;;;5018608;28;20044;-52
2024/01/29 04:08:45;;;;;;;84.53;48.67;;;4.10;99.90;;;;;;5018582;28;20040;-54
2024/01/29 04:11:10;;;;;;;86.00;49.88;;;4.10;99.90;;;;;;5070492;28;20162;-53
2024/01/29 04:13:36;;;;;;;95.07;52.25;;;4.10;99.90;;;;;;5070401;28;20032;-54
2024/01/29 04:16:02;;;;;;;91.10;50.00;;;3.90;99.90;;;;;;5035298;28;20121;-51
2024/01/29 04:18:28;;;;;;;110.63;60.33;;;3.90;99.90;;;;;;5025659;28;20044;-52
2024/01/29 04:20:54;;;;;;;85.72;50.55;;;4.00;99.90;;;;;;5074319;28;20036;-52
2024/01/29 04:23:19;;;;;;;77.47;48.35;;;3.60;99.90;;;;;;5074252;28;20017;-54
2024/01/29 04:25:45;;;;;;;74.55;45.17;;;;;;;;;;5074397;28;20038;-54
2024/01/29 04:28:11;;;;;;;133.70;69.53;;;3.90;99.90;;;;;;5074242;28;20034;-53
2024/01/29 04:30:37;;;;;;;73.90;46.17;;;;;;;;;;5074269;28;20028;-51
2024/01/29 04:33:03;;;;;;;78.32;45.97;;;;;;;;;;5074201;28;20024;-51
2024/01/29 04:35:30;;;;;;;98.32;60.17;;;;;;;;;;5074121;28;20056;-51
2024/01/29 04:37:56;;;;;;;86.47;50.15;;;;;;;;;;5022200;28;20492;-53
2024/01/29 04:40:22;;;;;;;107.00;61.58;;;3.30;99.90;;;;;;5022168;28;20064;-52
2024/01/29 04:42:49;;;;;;;56.53;34.88;;;3.30;99.90;;;;;;4989102;28;20048;-52
2024/01/29 04:45:15;;;;;;;54.47;32.33;;;2.70;99.90;;;;;;5072285;28;20059;-52
2024/01/29 04:47:40;;;;;;;45.63;27.92;;;2.20;99.90;;;;;;5059431;28;20052;-51
2024/01/29 04:50:07;;;;;;;42.83;26.80;;;2.10;99.90;;;;;;5073810;28;20033;-51
2024/01/29 04:52:32;;;;;;;42.13;26.77;;;2.00;99.90;;;;;;5021601;28;20090;-54
2024/01/29 04:54:58;;;;;;;48.25;28.52;;;2.00;99.90;;;;;;5021791;28;20040;-52
2024/01/29 04:57:24;;;;;;;37.75;22.67;;;2.00;99.90;;;;;;5073517;28;20097;-53
2024/01/29 04:59:50;;;;;;;37.90;22.55;;;2.10;99.90;;;;;;5021903;28;20036;-51
2024/01/29 05:02:16;;;;;;;38.78;24.27;;;2.10;99.90;;;;;;5073653;28;20039;-53
2024/01/29 05:04:42;;;;;;;54.38;34.38;;;2.30;99.90;;;;;;5073472;28;20093;-51
2024/01/29 05:07:08;;;;;;;42.13;27.05;;;2.70;99.90;;;;;;5073814;28;20133;-53
2024/01/29 05:09:34;;;;;;;35.50;23.25;;;3.00;99.90;;;;;;5073409;28;20107;-53
2024/01/29 05:12:00;;;;;;;47.90;29.05;;;3.10;99.90;;;;;;5073496;28;20024;-51
2024/01/29 05:14:27;;;;;;;54.60;30.95;;;3.10;99.90;;;;;;5073444;28;20032;-54
2024/01/29 05:16:53;;;;;;;44.33;29.38;;;3.10;99.90;;;;;;5038349;28;20476;-51
2024/01/29 05:19:19;;;;;;;44.35;31.35;;;3.30;99.90;;;;;;5073242;28;20074;-52
2024/01/29 05:21:47;;;;;;;53.33;35.03;;;3.50;99.90;;;;;;5045300;28;20603;-54
2024/01/29 05:24:13;;;;;;;51.13;33.15;;;3.60;99.90;;;;;;5073324;28;20021;-53
2024/01/29 05:26:39;;;;;;;82.68;48.78;;;3.60;99.90;;;;;;5052066;28;20051;-51
2024/01/29 05:29:05;;;;;;;99.93;58.33;;;3.40;99.90;;;;;;5028016;28;20063;-53
2024/01/29 05:31:30;;;;;;;109.07;63.00;;;3.50;99.90;;;;;;5072993;28;20133;-51
2024/01/29 05:33:56;;;;;;;81.70;51.20;;;3.40;99.90;;;;;;5073051;28;20253;-52
2024/01/29 05:36:22;;;;;;;61.47;38.22;;;3.40;99.90;;;;;;5070450;28;20043;-53
2024/01/29 05:38:48;;;;;;;41.72;25.77;;;3.40;99.90;;;;;;5072911;28;20039;-51
2024/01/29 05:41:13;;;;;;;57.40;33.92;;;3.40;99.90;;;;;;5021353;28;20036;-53
2024/01/29 05:43:39;;;;;;;54.97;32.22;;;3.40;99.90;;;;;;5072901;28;20720;-51
2024/01/29 05:46:05;;;;;;;52.40;32.50;;;3.50;99.90;;;;;;5072519;28;20473;-53
2024/01/29 05:48:31;;;;;;;51.40;31.88;;;3.50;99.90;;;;;;5072355;28;20055;-52
2024/01/29 05:50:56;;;;;;;41.22;29.38;;;3.60;99.90;;;;;;5072266;28;20475;-54
2024/01/29 05:53:22;;;;;;;51.55;28.63;;;3.60;99.90;;;;;;5072906;28;20158;-53
2024/01/29 05:55:48;;;;;;;45.58;29.17;;;3.70;99.90;;;;;;5072394;28;20056;-51
2024/01/29 05:58:14;;;;;;;54.67;38.40;;;3.60;99.90;;;;;;5036959;28;20480;-53
2024/01/29 06:00:40;;;;;;;58.67;36.53;;;3.70;99.90;;;;;;5068095;28;20087;-50
2024/01/29 06:03:06;;;;;;;51.47;34.00;;;3.60;99.90;;;;;;5052800;28;20415;-51
2024/01/29 06:05:31;;;;;;;64.60;41.15;;;3.60;99.90;;;;;;5061231;28;20446;-51
2024/01/29 06:07:57;;;;;;;74.03;44.88;;;3.60;99.90;;;;;;5062681;28;20025;-51
2024/01/29 06:10:23;;;;;;;73.82;42.67;;;3.70;99.90;;;;;;5060004;28;20063;-53
2024/01/29 06:12:49;;;;;;;65.03;39.80;;;3.80;99.90;;;;;;5039849;28;20119;-51
2024/01/29 06:15:14;;;;;;;77.88;40.42;;;3.80;99.90;;;;;;5027891;28;20504;-51
2024/01/29 06:17:40;;;;;;;62.67;39.85;;;3.80;99.90;;;;;;5067247;28;20097;-52
2024/01/29 06:20:07;;;;;;;61.58;36.10;;;3.80;99.90;;;;;;5057107;28;20037;-53
2024/01/29 06:22:33;;;;;;;57.78;34.75;;;3.90;99.90;;;;;;5070446;28;20380;-52
2024/01/29 06:24:58;;;;;;;62.83;38.58;;;4.00;99.90;;;;;;5035801;28;20040;-53
2024/01/29 06:27:24;;;;;;;61.47;40.03;;;4.00;99.90;;;;;;5020167;28;20048;-54
2024/01/29 06:29:50;;;;;;;54.55;33.30;;;4.10;99.90;;;;;;5071372;28;20033;-54
2024/01/29 06:32:16;;;;;;;80.13;43.95;;;4.10;99.90;;;;;;5068501;28;20032;-52
2024/01/29 06:34:42;;;;;;;94.93;54.70;;;4.20;99.90;;;;;;5067232;28;20032;-54
2024/01/29 06:37:07;;;;;;;96.68;54.13;;;4.10;99.90;;;;;;5062135;28;20051;-51
2024/01/29 06:39:33;;;;;;;119.53;70.40;;;4.20;99.90;;;;;;5056304;28;20020;-54
2024/01/29 06:41:59;;;;;;;76.78;49.10;;;4.30;99.90;;;;;;5059566;28;20074;-53
2024/01/29 06:44:25;;;;;;;59.30;40.35;;;4.40;99.90;;;;;;5067548;28;20032;-51
2024/01/29 06:46:51;;;;;;;63.25;39.47;;;4.40;99.90;;;;;;5067703;28;20035;-53
2024/01/29 06:49:30;;;;;;;55.78;39.13;;;4.40;99.90;;;;;;5056469;28;20049;-51
2024/01/29 06:51:56;;;;;;;38.05;25.15;;;4.30;99.90;;;;;;5065627;28;20392;-53
2024/01/29 06:54:22;;;;;;;149.73;95.40;;;3.90;99.90;;;;;;5029061;28;20037;-52
2024/01/29 06:56:47;;;;;;;112.10;72.93;;;4.00;99.90;;;;;;4995967;28;20085;-54
2024/01/29 06:59:16;;;;;;;78.28;50.30;;;4.00;99.90;;;;;;5029083;28;20091;-52
2024/01/29 07:01:42;;;;;;;69.70;48.33;;;;;;;;;;5028995;28;20025;-51
2024/01/29 07:04:08;;;;;;;73.93;49.75;;;4.40;99.90;;;;;;5028429;28;20045;-51
2024/01/29 07:06:33;;;;;;;63.20;42.78;;;4.50;99.90;;;;;;5019265;28;20096;-51
2024/01/29 07:08:59;;;;;;;57.88;37.90;;;4.60;99.90;;;;;;5009078;28;20044;-53
2024/01/29 07:11:25;;;;;;;65.18;43.92;;;4.80;99.90;;;;;;5009323;28;20025;-54
2024/01/29 07:13:51;;;;;;;53.58;40.50;;;4.90;99.90;;;;;;5016588;28;20060;-51
2024/01/29 07:16:17;;;;;;;52.53;34.60;;;;;;;;;;4992557;28;20045;-54
2024/01/29 07:18:42;;;;;;;57.72;37.55;;;5.20;99.90;;;;;;5009087;28;20061;-54
2024/01/29 07:21:11;;;;;;;43.72;27.48;;;5.30;99.90;;;;;;4992587;28;20094;-51
2024/01/29 07:23:37;;;;;;;39.25;26.90;;;5.50;99.90;;;;;;5020877;28;20022;-51
2024/01/29 07:26:03;;;;;;;34.92;22.42;;;5.60;99.90;;;;;;5051024;28;20469;-53
2024/01/29 07:28:29;;;;;;;33.13;22.75;;;5.60;99.90;;;;;;5065142;28;20388;-51
2024/01/29 07:30:55;;;;;;;48.20;29.55;;;;;;;;;;5043037;28;20033;-54
2024/01/29 07:33:20;;;;;;;46.40;29.38;;;6.50;99.90;;;;;;5007092;28;20120;-53
2024/01/29 07:35:48;;;;;;;37.83;23.58;;;;;;;;;;5061560;28;20127;-53
2024/01/29 07:38:14;;;;;;;34.28;22.02;;;;;;;;;;5069053;28;20064;-52
2024/01/29 07:40:40;;;;;;;31.13;21.52;;;;;;;;;;5052693;28;20039;-54
2024/01/29 07:43:06;;;;;;;79.63;37.22;;;;;;;;;;5061035;28;20082;-52
2024/01/29 07:45:32;;;;;;;30.25;20.30;;;;;;;;;;5053588;28;20024;-51
2024/01/29 07:48:00;;;;;;;29.83;20.08;;;;;;;;;;5037713;28;20045;-56
2024/01/29 07:50:26;;;;;;;28.08;19.27;;;;;;;;;;5039190;28;20098;-52
2024/01/29 07:52:53;;;;;;;30.00;19.75;;;;;;;;;;5014428;28;20064;-53
2024/01/29 07:55:22;;;;;;;196.05;79.45;;;;;;;;;;5035601;28;20120;-53
2024/01/29 07:57:47;;;;;;;33.58;23.42;;;6.60;99.90;;;;;;5033926;28;20184;-52
2024/01/29 08:00:13;;;;;;;32.25;21.17;;;6.70;99.90;;;;;;5004800;28;20120;-51
2024/01/29 08:02:39;;;;;;;41.90;24.92;;;6.60;99.90;;;;;;5010672;28;20041;-54
2024/01/29 08:05:05;;;;;;;30.10;19.48;;;6.60;99.90;;;;;;5031259;28;20483;-51
2024/01/29 08:07:31;;;;;;;29.88;21.20;;;6.60;99.90;;;;;;5031280;28;20044;-54
2024/01/29 08:10:00;;;;;;;29.98;19.70;;;6.90;99.90;;;;;;5031296;28;20435;-52
2024/01/29 08:12:27;;;;;;;29.80;20.88;;;6.60;99.90;;;;;;5030935;28;20236;-53
2024/01/29 08:14:52;;;;;;;29.02;18.67;;;6.60;99.90;;;;;;5043293;28;20313;-51
2024/01/29 08:17:18;;;;;;;29.67;20.17;;;6.70;99.90;;;;;;5000724;28;20877;-52
2024/01/29 08:19:44;;;;;;;32.28;19.73;;;6.70;99.90;;;;;;4991779;28;20044;-53
2024/01/29 08:22:09;;;;;;;29.50;18.33;;;6.70;99.90;;;;;;5057016;28;20032;-51
2024/01/29 08:24:35;;;;;;;26.80;18.92;;;6.70;99.90;;;;;;5024522;28;20036;-50
2024/01/29 08:27:01;;;;;;;26.77;17.67;;;6.70;99.90;;;;;;5057206;28;20029;-52
2024/01/29 08:29:26;;;;;;;30.70;20.50;;;6.70;99.90;;;;;;5061816;28;20031;-50
2024/01/29 08:31:52;;;;;;;34.38;20.13;;;6.80;99.90;;;;;;5058636;28;20048;-51
2024/01/29 08:34:19;;;;;;;47.67;30.88;;;;;;;;;;5023692;28;20041;-52
2024/01/29 08:36:45;;;;;;;41.08;25.17;;;;;;;;;;5060619;28;20044;-51
2024/01/29 08:39:11;;;;;;;33.17;21.00;;;;;;;;;;5058829;28;20108;-52
2024/01/29 08:41:36;;;;;;;23.00;15.85;;;8.00;99.90;;;;;;5057412;28;20037;-49
2024/01/29 08:44:06;;;;;;;21.40;16.13;;;7.90;99.50;;;;;;5060777;28;20021;-50
2024/01/29 08:46:32;;;;;;;24.75;16.67;;;7.60;98.90;;;;;;5010528;28;20089;-53
2024/01/29 08:48:58;;;;;;;31.85;20.48;;;7.90;99.30;;;;;;5059779;28;20068;-51
2024/01/29 08:51:23;;;;;;;43.20;27.80;;;7.10;99.90;;;;;;5057623;28;20037;-52
2024/01/29 08:53:49;;;;;;;41.92;23.00;;;7.40;99.90;;;;;;5064232;28;20044;-50
2024/01/29 08:56:15;;;;;;;45.30;30.15;;;7.50;99.90;;;;;;5054413;28;20040;-52
2024/01/29 08:58:41;;;;;;;27.60;18.50;;;7.80;99.90;;;;;;5014619;28;20041;-50
2024/01/29 09:01:07;;;;;;;22.70;16.95;;;7.70;99.50;;;;;;5052217;28;20048;-52
2024/01/29 09:03:33;;;;;;;24.75;17.30;;;7.80;99.30;;;;;;5054939;28;20025;-52
2024/01/29 09:05:58;;;;;;;30.25;18.88;;;7.80;99.30;;;;;;5056206;28;20036;-52
2024/01/29 09:08:27;;;;;;;34.60;21.15;;;;;;;;;;5004164;28;20052;-51
2024/01/29 09:10:53;;;;;;;28.70;20.02;;;7.80;99.10;;;;;;5012892;28;20033;-50
2024/01/29 09:13:19;;;;;;;43.55;27.75;;;7.90;98.90;;;;;;5060679;28;20036;-50
2024/01/29 09:15:45;;;;;;;24.02;16.90;;;8.10;98.70;;;;;;5062738;28;20068;-51
2024/01/29 09:18:10;;;;;;;28.13;20.05;;;8.20;98.00;;;;;;5061619;28;20029;-50
2024/01/29 09:20:36;;;;;;;24.33;16.17;;;6.00;97.60;;;;;;5064631;28;20575;-51
2024/01/29 09:23:02;;;;;;;58.50;28.88;;;8.10;99.90;;;;;;5010994;28;20055;-52
2024/01/29 09:25:28;;;;;;;40.00;25.13;;;;;;;;;;5009152;28;20037;-52
2024/01/29 09:27:54;;;;;;;35.65;26.63;;;8.20;97.50;;;;;;5057062;28;20025;-52
2024/01/29 09:30:20;;;;;;;22.95;13.40;;;8.40;97.60;;;;;;5055509;28;20535;-51
2024/01/29 09:32:45;;;;;;;21.95;12.85;;;8.60;96.70;;;;;;5009518;28;20044;-52
2024/01/29 09:35:11;;;;;;;35.92;14.85;;;8.70;96.60;;;;;;5057463;28;20040;-52
2024/01/29 09:37:39;;;;;;;18.27;13.18;;;;;;;;;;5057320;28;20393;-50
2024/01/29 09:40:06;;;;;;;24.92;13.43;;;;;;;;;;5021086;28;20044;-51
2024/01/29 09:42:33;;;;;;;20.17;13.60;;;;;;;;;;5020086;28;20550;-52
2024/01/29 09:45:00;;;;;;;18.83;11.90;;;9.30;99.90;;;;;;5072237;28;20028;-52
2024/01/29 09:47:27;;;;;;;26.63;15.13;;;9.30;95.80;;;;;;5060445;28;20053;-51
2024/01/29 09:49:55;;;;;;;18.63;12.35;;;9.10;96.00;;;;;;5061388;28;20539;-51
2024/01/29 09:52:22;;;;;;;18.00;12.18;;;9.10;95.90;;;;;;5062254;28;20058;-53
2024/01/29 09:54:50;;;;;;;21.00;12.93;;;9.20;95.70;;;;;;5062934;28;20078;-51
2024/01/29 09:57:16;;;;;;;19.60;12.80;;;9.10;96.00;;;;;;5062151;28;20040;-52
2024/01/29 09:59:42;;;;;;;19.08;12.88;;;9.20;96.00;;;;;;5056585;28;20552;-52
2024/01/29 10:02:09;;;;;;;42.42;24.17;;;8.90;98.20;;;;;;4996104;28;20413;-50
2024/01/29 10:04:35;;;;;;;27.35;19.55;;;8.80;96.90;;;;;;4982446;28;20111;-51
2024/01/29 10:07:01;;;;;;;18.40;12.13;;;8.80;97.00;;;;;;4998546;28;20042;-52
2024/01/29 10:09:29;;;;;;;21.80;14.60;;;8.80;96.90;;;;;;4991289;28;20038;-51
2024/01/29 10:11:55;;;;;;;22.38;13.57;;;;;;;;;;4997610;28;20822;-51
2024/01/29 10:14:21;;;;;;;22.15;13.88;;;;;;;;;;4994809;28;20026;-51
2024/01/29 10:16:48;;;;;;;28.50;18.42;;;;;;;;;;4997984;28;20050;-52
2024/01/29 10:19:14;;;;;;;21.52;12.77;;;8.00;97.60;;;;;;4997345;28;20041;-52
2024/01/29 10:21:43;;;;;;;22.38;13.48;;;8.20;98.40;;;;;;5001640;28;20045;-51
2024/01/29 10:24:16;;;;;;;19.30;14.05;;;8.40;99.30;;;;;;4991413;28;20038;-52
2024/01/29 10:26:43;;;;;;;27.27;13.88;;;8.90;98.30;;;;;;4990175;28;20030;-52
2024/01/29 10:29:10;;;;;;;25.60;14.27;;;8.90;97.90;;;;;;4990236;28;20129;-52
2024/01/29 10:31:37;;;;;;;19.67;13.02;;;9.10;98.10;;;;;;4987573;28;20038;-52
2024/01/29 10:34:04;;;;;;;22.08;13.13;;;9.00;97.50;;;;;;5027925;28;20489;-51
2024/01/29 10:36:30;;;;;;;26.02;14.48;;;9.20;98.20;;;;;;5049331;28;20049;-53
2024/01/29 10:38:58;;;;;;;24.10;16.00;;;9.50;98.00;;;;;;5003196;28;20052;-51
2024/01/29 10:41:25;;;;;;;24.50;13.25;;;9.60;97.40;;;;;;5031511;28;20473;-52
2024/01/29 10:43:52;;;;;;;21.08;13.95;;;9.60;98.00;;;;;;5038734;28;20041;-52
2024/01/29 10:46:20;;;;;;;20.35;13.48;;;;;;;;;;5022248;28;20191;-51
2024/01/29 10:48:47;;;;;;;27.23;15.52;;;10.70;95.90;;;;;;5034533;28;20053;-52
2024/01/29 10:51:14;;;;;;;30.08;17.27;;;10.90;96.10;;;;;;5046502;28;20107;-51
2024/01/29 10:53:43;;;;;;;39.58;18.10;;;11.10;95.40;;;;;;5029484;28;20049;-53
2024/01/29 10:56:10;;;;;;;20.85;14.98;;;11.30;95.20;;;;;;5028994;28;20033;-52
2024/01/29 10:58:37;;;;;;;28.77;13.95;;;11.80;94.80;;;;;;5032279;28;20025;-53
2024/01/29 11:01:04;;;;;;;25.75;14.70;;;;;;;;;;4998070;28;20038;-54
2024/01/29 11:03:31;;;;;;;19.17;14.10;;;;;;;;;;4998061;28;20049;-52
2024/01/29 11:06:04;;;;;;;20.02;13.90;;;14.10;92.70;;;;;;5018626;28;20041;-54
2024/01/29 11:08:32;;;;;;;19.17;13.20;;;;;;;;;;5016466;28;20493;-52
2024/01/29 11:11:00;;;;;;;23.30;12.55;;;;;;;;;;5001520;28;20037;-53
2024/01/29 11:13:27;;;;;;;27.42;14.60;;;;;;;;;;5008607;28;20069;-54
2024/01/29 11:15:53;;;;;;;23.63;14.93;;;;;;;;;;5008598;28;20132;-53
2024/01/29 11:18:19;;;;;;;20.38;12.57;;;;;;;;;;5009155;28;20053;-53
2024/01/29 11:20:45;;;;;;;16.58;10.85;;;;;;;;;;5008808;28;20745;-53
2024/01/29 11:23:11;;;;;;;14.63;9.65;;;;;;;;;;5026084;28;20029;-54
2024/01/29 11:25:38;;;;;;;19.88;11.98;;;;;;;;;;5022750;28;20041;-52
2024/01/29 11:28:07;;;;;;;19.42;8.70;;;;;;;;;;5008696;28;20846;-52
2024/01/29 11:30:33;;;;;;;22.02;12.32;;;;;;;;;;5019890;28;20472;-51
2024/01/29 11:33:26;;;;;;;26.33;12.75;;;;;;;;;;5045970;28;20094;-53
2024/01/29 11:35:56;;;;;;;31.67;14.40;;;;;;;;;;5047520;28;20047;-54
2024/01/29 11:38:23;;;;;;;42.83;18.73;;;;;;;;;;5007106;28;20045;-52
2024/01/29 11:40:49;;;;;;;28.77;13.82;;;;;;;;;;5050961;28;20044;-51
2024/01/29 11:43:19;;;;;;;20.83;12.88;;;;;;;;;;5050748;28;20040;-52
2024/01/29 11:45:48;;;;;;;40.33;24.17;;;;;;;;;;5065822;28;20028;-51
2024/01/29 11:48:15;;;;;;;27.80;17.70;;;;;;;;;;5034966;28;20525;-53
2024/01/29 11:50:45;;;;;;;30.00;12.75;;;;;;;;;;5068232;28;20633;-51
2024/01/29 11:53:15;;;;;;;32.75;18.95;;;;;;;;;;5070773;28;20111;-51
2024/01/29 11:55:42;;;;;;;23.00;16.25;;;;;;;;;;5070652;28;20032;-51
2024/01/29 11:58:21;;;;;;;13.55;7.55;;;;;;;;;;5070512;28;20427;-54
2024/01/29 12:00:48;;;;;;;12.13;9.00;;;;;;;;;;5070842;28;20025;-57
2024/01/29 12:03:15;;;;;;;16.60;7.72;;;;;;;;;;5035017;28;20048;-53
2024/01/29 12:05:41;;;;;;;12.70;8.25;;;;;;;;;;5070511;28;20732;-53
2024/01/29 12:08:14;;;;;;;22.90;14.45;;;;;;;;;;5065969;28;20045;-53
2024/01/29 12:10:40;;;;;;;16.50;11.50;;;;;;;;;;5050898;28;20033;-54
2024/01/29 12:13:11;;;;;;;14.93;8.93;;;;;;;;;;5051668;28;20459;-56
2024/01/29 12:15:37;;;;;;;16.02;9.35;;;;;;;;;;5050535;28;20041;-53
2024/01/29 12:18:09;;;;;;;13.75;8.30;;;;;;;;;;5055651;28;20028;-51
2024/01/29 12:20:35;;;;;;;13.15;8.05;;;;;;;;;;5063912;28;20068;-51
2024/01/29 12:23:01;;;;;;;13.68;9.70;;;;;;;;;;5060204;28;20035;-54
2024/01/29 12:25:27;;;;;;;19.63;11.43;;;;;;;;;;5060034;28;20037;-54
2024/01/29 12:28:02;;;;;;;23.77;8.80;;;;;;;;;;5060921;28;20095;-52
2024/01/29 12:30:28;;;;;;;20.17;10.95;;;;;;;;;;5070368;28;20044;-53
2024/01/29 12:32:55;;;;;;;26.30;19.02;;;;;;;;;;5070296;28;20040;-53
2024/01/29 12:35:28;;;;;;;14.90;7.30;;;;;;;;;;5070138;28;20510;-50
2024/01/29 12:38:04;;;;;;;13.40;8.73;;;;;;;;;;5072070;28;20058;-51
2024/01/29 12:40:30;;;;;;;10.90;6.05;;;;;;;;;;5056102;28;20599;-52
2024/01/29 12:43:01;;;;;;;9.68;6.65;;;;;;;;;;5073667;28;20032;-54
2024/01/29 12:45:27;;;;;;;19.33;8.95;;;;;;;;;;5073990;28;20533;-55
2024/01/29 12:48:17;;;;;;;17.92;8.73;;;;;;;;;;5073793;28;20052;-58
2024/01/29 12:52:38;;;;;;;13.95;7.68;;;;;;;;;;5067781;28;20407;-56
2024/01/29 12:55:04;;;;;;;16.55;9.60;;;;;;;;;;5069589;28;20031;-51
2024/01/29 12:57:30;;;;;;;9.50;5.65;;;;;;;;;;5052605;28;20052;-50
2024/01/29 12:59:56;;;;;;;75.90;41.47;;;;;;;;;;5079911;28;20082;-52
2024/01/29 13:02:22;;;;;;;34.45;17.98;;;;;;;;;;5066789;28;20028;-51
2024/01/29 13:04:48;;;;;;;13.85;5.72;;;;;;;;;;5068852;28;20024;-52
2024/01/29 13:07:15;;;;;;;97.05;48.92;;;;;;;;;;5068553;28;20028;-52
2024/01/29 13:09:41;;;;;;;19.95;10.77;;;;;;;;;;5054756;28;20045;-52